Time;durP1;ratioP1;P1;durP2;ratioP2;P2;SDS_P1;SDS_P2;PMS_P1;PMS_P2;Temp;Humidity;BMP_temperature;BMP_pressure;BME280_temperature;BME280_humidity;BME280_pressure;Samples;Min_cycle;Max_cycle;Signal;HPM_P1;HPM_P2
2023/08/14 00:00:48;;;;;;;2.00;1.87;;;20.30;99.90;;;;;;5116312;28;21059;-83
2023/08/14 00:03:15;;;;;;;1.37;1.27;;;20.30;99.90;;;;;;5115971;28;20481;-83
2023/08/14 00:05:44;;;;;;;2.20;1.70;;;20.30;99.90;;;;;;5116047;28;20473;-83
2023/08/14 00:08:10;;;;;;;7.80;1.87;;;20.30;99.90;;;;;;5116472;28;20443;-83
2023/08/14 00:10:37;;;;;;;1.30;1.20;;;20.30;99.90;;;;;;5116425;28;20434;-83
2023/08/14 00:13:04;;;;;;;1.60;1.50;;;20.30;99.90;;;;;;5116298;28;20481;-83
2023/08/14 00:15:31;;;;;;;2.27;2.07;;;20.40;99.90;;;;;;5116371;28;20473;-83
2023/08/14 00:17:58;;;;;;;1.63;1.53;;;20.40;99.90;;;;;;5116215;28;20478;-83
2023/08/14 00:20:25;;;;;;;1.63;1.53;;;20.40;99.90;;;;;;5115932;28;20457;-83
2023/08/14 00:22:53;;;;;;;2.30;2.10;;;20.40;99.90;;;;;;5115820;28;20439;-83
2023/08/14 00:25:20;;;;;;;2.90;1.90;;;20.40;99.90;;;;;;5116031;28;20462;-84
2023/08/14 00:27:46;;;;;;;1.53;1.37;;;20.30;99.90;;;;;;5116169;28;20935;-83
2023/08/14 00:30:13;;;;;;;1.80;1.70;;;20.40;99.90;;;;;;5116001;28;20443;-83
2023/08/14 00:32:40;;;;;;;1.63;1.40;;;20.40;99.90;;;;;;5115985;28;20443;-83
2023/08/14 00:35:08;;;;;;;2.60;2.13;;;20.40;99.90;;;;;;5115485;28;21024;-83
2023/08/14 00:37:43;;;;;;;2.87;1.40;;;20.40;99.90;;;;;;5115761;28;20470;-83
2023/08/14 00:40:12;;;;;;;1.27;1.17;;;20.40;99.90;;;;;;5115811;28;20460;-83
2023/08/14 00:42:40;;;;;;;1.77;1.67;;;20.40;99.90;;;;;;5116048;28;20518;-83
2023/08/14 00:45:08;;;;;;;1.47;1.37;;;20.40;99.90;;;;;;5115672;28;20462;-83
2023/08/14 00:47:36;;;;;;;1.77;1.63;;;20.40;99.90;;;;;;5115005;27;20809;-83
2023/08/14 00:50:03;;;;;;;1.50;1.40;;;20.40;99.90;;;;;;5115651;28;20435;-84
2023/08/14 00:52:32;;;;;;;5.20;1.53;;;20.40;99.90;;;;;;5115583;28;20446;-83
2023/08/14 00:55:01;;;;;;;1.83;1.73;;;20.40;99.90;;;;;;5115508;28;20498;-83
2023/08/14 00:57:30;;;;;;;3.33;1.70;;;20.40;99.90;;;;;;5115407;27;20478;-83
2023/08/14 00:59:57;;;;;;;2.80;1.43;;;20.40;99.90;;;;;;5115400;28;20443;-83
2023/08/14 01:02:24;;;;;;;2.37;2.10;;;20.40;99.90;;;;;;5115125;28;20479;-83
2023/08/14 01:04:51;;;;;;;2.70;1.70;;;20.40;99.90;;;;;;5114936;28;20454;-83
2023/08/14 01:07:18;;;;;;;2.43;2.00;;;20.40;99.90;;;;;;5115276;28;20470;-84
2023/08/14 01:09:45;;;;;;;1.80;1.70;;;20.50;99.90;;;;;;5114959;28;20947;-83
2023/08/14 01:12:20;;;;;;;2.30;2.10;;;20.50;99.90;;;;;;5114889;27;20446;-83
2023/08/14 01:14:50;;;;;;;3.90;1.67;;;20.40;99.90;;;;;;5114765;28;21028;-83
2023/08/14 01:17:19;;;;;;;1.70;1.60;;;20.50;99.90;;;;;;5115076;28;20470;-83
2023/08/14 01:19:49;;;;;;;2.17;1.97;;;20.40;99.90;;;;;;5114982;28;20450;-84
2023/08/14 01:22:30;;;;;;;1.50;1.40;;;20.40;99.90;;;;;;5115036;27;20431;-83
2023/08/14 01:25:22;;;;;;;1.53;1.43;;;20.40;99.90;;;;;;5114568;28;20826;-84
2023/08/14 01:27:50;;;;;;;1.80;1.70;;;20.20;99.90;;;;;;5115113;28;20863;-84
2023/08/14 01:30:16;;;;;;;2.50;1.80;;;20.10;99.90;;;;;;5114813;27;20516;-84
2023/08/14 01:32:43;;;;;;;5.90;2.47;;;20.20;99.90;;;;;;5114770;28;20443;-85
2023/08/14 01:35:10;;;;;;;1.50;1.40;;;20.10;99.90;;;;;;5114681;28;20466;-85
2023/08/14 01:37:45;;;;;;;1.70;1.57;;;20.10;99.90;;;;;;5114761;28;20479;-87
2023/08/14 01:40:24;;;;;;;1.20;1.00;;;20.00;99.90;;;;;;5114566;28;20423;-85
2023/08/14 01:42:58;;;;;;;1.40;1.30;;;19.80;99.90;;;;;;5114448;28;20415;-84
2023/08/14 01:45:25;;;;;;;3.50;1.10;;;19.60;99.90;;;;;;5114517;28;20459;-84
2023/08/14 01:47:54;;;;;;;1.60;1.00;;;19.50;99.90;;;;;;5114521;28;20442;-84
2023/08/14 01:50:23;;;;;;;2.47;1.30;;;19.40;99.90;;;;;;5114178;28;20442;-84
2023/08/14 01:52:50;;;;;;;1.53;1.17;;;19.40;99.90;;;;;;5114436;28;20807;-84
2023/08/14 01:55:18;;;;;;;2.70;1.40;;;19.30;99.90;;;;;;5114255;27;20463;-83
2023/08/14 01:57:45;;;;;;;1.07;1.07;;;19.20;99.90;;;;;;5114272;28;20475;-85
2023/08/14 02:00:12;;;;;;;0.83;0.80;;;19.20;99.90;;;;;;5113376;28;20432;-85
2023/08/14 02:02:39;;;;;;;1.40;1.20;;;19.20;99.90;;;;;;5114265;28;20824;-85
2023/08/14 02:05:06;;;;;;;1.50;1.23;;;19.20;99.90;;;;;;5114641;28;20471;-84
2023/08/14 02:07:33;;;;;;;1.50;1.40;;;19.20;99.90;;;;;;5114188;28;20435;-83
2023/08/14 02:10:00;;;;;;;1.23;1.13;;;19.20;99.90;;;;;;5113811;28;20446;-83
2023/08/14 02:12:30;;;;;;;1.27;1.17;;;19.10;99.90;;;;;;5113852;28;20431;-82
2023/08/14 02:14:57;;;;;;;1.40;1.30;;;19.10;99.90;;;;;;5113984;28;20463;-81
2023/08/14 02:17:23;;;;;;;1.10;1.00;;;19.10;99.90;;;;;;5114493;28;20450;-81
2023/08/14 02:19:50;;;;;;;4.13;1.53;;;19.10;99.90;;;;;;5113927;28;20443;-81
2023/08/14 02:22:17;;;;;;;5.03;1.47;;;19.10;99.90;;;;;;5113936;28;20443;-81
2023/08/14 02:24:43;;;;;;;1.43;1.33;;;19.10;99.90;;;;;;5113540;28;20838;-81
2023/08/14 02:27:10;;;;;;;1.63;1.07;;;19.20;99.90;;;;;;5113876;28;20842;-81
2023/08/14 02:29:38;;;;;;;1.63;1.50;;;19.20;99.90;;;;;;5113858;28;20530;-81
2023/08/14 02:32:05;;;;;;;2.20;1.30;;;19.20;99.90;;;;;;5113891;28;20798;-80
2023/08/14 02:34:34;;;;;;;1.83;1.50;;;19.20;99.90;;;;;;5113447;28;20998;-81
2023/08/14 02:37:01;;;;;;;2.00;1.03;;;19.10;99.90;;;;;;5113790;28;20446;-81
2023/08/14 02:39:27;;;;;;;2.23;0.90;;;19.00;99.90;;;;;;5113484;28;20898;-81
2023/08/14 02:41:54;;;;;;;2.80;1.83;;;18.90;99.90;;;;;;5113825;28;20423;-81
2023/08/14 02:44:21;;;;;;;0.70;0.70;;;18.80;99.90;;;;;;5113634;28;20447;-81
2023/08/14 02:46:49;;;;;;;2.17;1.10;;;18.90;99.90;;;;;;5113721;28;20439;-81
2023/08/14 02:49:16;;;;;;;2.60;1.83;;;18.90;99.90;;;;;;5113702;28;20438;-81
2023/08/14 02:51:42;;;;;;;0.70;0.70;;;18.90;99.90;;;;;;5113656;28;20442;-81
2023/08/14 02:54:09;;;;;;;1.60;1.10;;;18.90;99.90;;;;;;5113582;28;20463;-81
2023/08/14 02:56:36;;;;;;;4.77;0.90;;;18.90;99.90;;;;;;5113312;28;20443;-82
2023/08/14 02:59:03;;;;;;;2.00;1.40;;;18.90;99.90;;;;;;5113210;28;20489;-82
2023/08/14 03:01:29;;;;;;;1.80;1.57;;;18.90;99.90;;;;;;5113569;28;20442;-82
2023/08/14 03:03:57;;;;;;;1.10;1.00;;;18.90;99.90;;;;;;5113018;28;20836;-82
2023/08/14 03:06:24;;;;;;;1.43;1.10;;;18.80;99.90;;;;;;5113161;28;20965;-82
2023/08/14 03:08:51;;;;;;;5.60;1.20;;;18.90;99.90;;;;;;5113513;28;20451;-83
2023/08/14 03:11:18;;;;;;;6.30;1.27;;;18.90;99.90;;;;;;5115855;28;20439;-82
2023/08/14 03:13:45;;;;;;;0.90;0.90;;;18.80;99.90;;;;;;5117411;28;20449;-82
2023/08/14 03:16:11;;;;;;;2.00;1.30;;;18.70;99.90;;;;;;5117430;28;20450;-83
2023/08/14 03:18:38;;;;;;;0.90;0.90;;;18.70;99.90;;;;;;5117290;28;20490;-83
2023/08/14 03:21:07;;;;;;;1.07;0.90;;;18.70;99.90;;;;;;5117350;27;20438;-84
2023/08/14 03:23:33;;;;;;;0.70;0.70;;;18.60;99.90;;;;;;5117295;28;20537;-83
2023/08/14 03:26:00;;;;;;;1.43;0.90;;;18.60;99.90;;;;;;5116883;28;21011;-83
2023/08/14 03:28:27;;;;;;;0.70;0.60;;;18.60;99.90;;;;;;5116861;28;20934;-83
2023/08/14 03:30:54;;;;;;;1.00;0.80;;;18.50;99.90;;;;;;5117123;28;20450;-83
2023/08/14 03:33:20;;;;;;;0.80;0.80;;;18.50;99.90;;;;;;5117138;28;20435;-83
2023/08/14 03:35:47;;;;;;;0.67;0.67;;;18.50;99.90;;;;;;5117037;28;20496;-84
2023/08/14 03:38:16;;;;;;;1.27;0.90;;;18.50;99.90;;;;;;5116930;28;20490;-83
2023/08/14 03:40:43;;;;;;;3.57;1.17;;;18.40;99.90;;;;;;5116935;28;20812;-83
2023/08/14 03:43:10;;;;;;;0.80;0.80;;;18.40;99.90;;;;;;5116866;28;20442;-83
2023/08/14 03:45:37;;;;;;;0.80;0.80;;;18.40;99.90;;;;;;5116825;28;20467;-84
2023/08/14 03:48:04;;;;;;;0.83;0.83;;;18.40;99.90;;;;;;5116515;28;20450;-83
2023/08/14 03:50:31;;;;;;;1.97;0.90;;;18.40;99.90;;;;;;5116753;28;20811;-84
2023/08/14 03:52:57;;;;;;;0.70;0.70;;;18.40;99.90;;;;;;5116432;28;21121;-84
2023/08/14 03:55:25;;;;;;;2.30;1.10;;;18.30;99.90;;;;;;5116320;28;20462;-83
2023/08/14 03:57:52;;;;;;;4.07;1.20;;;18.30;99.90;;;;;;5117106;27;20443;-84
2023/08/14 04:00:19;;;;;;;4.13;1.03;;;18.30;99.90;;;;;;5116559;28;20443;-84
2023/08/14 04:02:46;;;;;;;1.63;1.33;;;18.30;99.90;;;;;;5116102;28;20991;-84
2023/08/14 04:05:12;;;;;;;1.13;0.90;;;18.30;99.90;;;;;;5116380;28;20455;-84
2023/08/14 04:07:39;;;;;;;0.90;0.90;;;18.30;99.90;;;;;;5116452;28;20466;-84
2023/08/14 04:10:07;;;;;;;1.33;0.97;;;18.30;99.90;;;;;;5116152;28;20951;-84
2023/08/14 04:12:35;;;;;;;0.93;0.87;;;18.30;99.90;;;;;;5116385;28;20530;-84
2023/08/14 04:15:13;;;;;;;2.40;1.03;;;18.20;99.90;;;;;;5115924;28;20459;-84
2023/08/14 04:17:40;;;;;;;2.33;1.10;;;18.20;99.90;;;;;;5116339;28;20847;-84
2023/08/14 04:20:08;;;;;;;2.97;1.30;;;18.20;99.90;;;;;;5116093;28;20573;-84
2023/08/14 04:22:35;;;;;;;1.10;1.00;;;18.20;99.90;;;;;;5115094;28;20451;-84
2023/08/14 04:25:01;;;;;;;1.63;1.20;;;18.20;99.90;;;;;;5115769;27;21010;-84
2023/08/14 04:27:28;;;;;;;0.90;0.90;;;18.20;99.90;;;;;;5115848;28;20432;-84
2023/08/14 04:29:56;;;;;;;2.10;1.33;;;18.20;99.90;;;;;;5115666;27;20443;-84
2023/08/14 04:32:23;;;;;;;1.33;1.00;;;18.10;99.90;;;;;;5116063;28;20450;-84
2023/08/14 04:34:50;;;;;;;2.17;0.90;;;18.10;99.90;;;;;;5115880;28;20583;-84
2023/08/14 04:37:16;;;;;;;1.07;0.97;;;18.20;99.90;;;;;;5115564;27;20958;-84
2023/08/14 04:39:43;;;;;;;1.00;0.80;;;18.10;99.90;;;;;;5115801;28;20532;-84
2023/08/14 04:42:10;;;;;;;1.03;0.93;;;18.10;99.90;;;;;;5115868;28;20436;-84
2023/08/14 04:44:36;;;;;;;1.13;0.90;;;18.20;99.90;;;;;;5115422;28;20459;-84
2023/08/14 04:47:05;;;;;;;1.30;1.20;;;18.10;99.90;;;;;;5115715;28;20450;-84
2023/08/14 04:49:32;;;;;;;1.10;1.00;;;18.10;99.90;;;;;;5115732;28;20436;-84
2023/08/14 04:51:59;;;;;;;0.97;0.80;;;18.00;99.90;;;;;;5115266;28;20447;-84
2023/08/14 04:54:26;;;;;;;0.70;0.70;;;18.00;99.90;;;;;;5115489;28;20459;-84
2023/08/14 04:56:53;;;;;;;1.30;1.13;;;18.10;99.90;;;;;;5115554;28;20443;-84
2023/08/14 04:59:20;;;;;;;1.70;1.00;;;18.10;99.90;;;;;;5115365;28;20475;-84
2023/08/14 05:01:47;;;;;;;0.87;0.77;;;18.10;99.90;;;;;;5115105;28;20959;-84
2023/08/14 05:04:15;;;;;;;1.10;1.00;;;18.20;99.90;;;;;;5114861;28;20475;-84
2023/08/14 05:06:41;;;;;;;1.97;0.90;;;18.20;99.90;;;;;;5115272;27;20443;-84
2023/08/14 05:09:08;;;;;;;4.27;1.00;;;18.20;99.90;;;;;;5115312;28;20435;-84
2023/08/14 05:11:35;;;;;;;1.23;0.90;;;18.30;99.90;;;;;;5115249;27;20443;-84
2023/08/14 05:14:02;;;;;;;1.17;1.00;;;18.30;99.90;;;;;;5115071;28;20447;-83
2023/08/14 05:16:28;;;;;;;1.20;1.07;;;18.30;99.90;;;;;;5115098;28;20453;-83
2023/08/14 05:18:55;;;;;;;4.20;1.10;;;18.30;99.90;;;;;;5114983;28;20479;-84
2023/08/14 05:21:23;;;;;;;6.10;1.80;;;18.30;99.90;;;;;;5114716;28;20944;-84
2023/08/14 05:23:50;;;;;;;1.63;0.83;;;18.50;99.90;;;;;;5114881;28;20447;-84
2023/08/14 05:26:17;;;;;;;1.83;1.23;;;18.50;99.90;;;;;;5114951;27;20443;-85
2023/08/14 05:28:43;;;;;;;1.20;1.00;;;18.60;99.90;;;;;;5114858;28;20442;-84
2023/08/14 05:31:10;;;;;;;1.20;1.10;;;18.70;99.90;;;;;;5114838;28;20466;-84
2023/08/14 05:33:37;;;;;;;1.47;1.20;;;18.70;99.90;;;;;;5114629;28;20439;-84
2023/08/14 05:36:04;;;;;;;1.17;0.90;;;18.80;99.90;;;;;;5114346;28;20793;-84
2023/08/14 05:38:32;;;;;;;1.00;1.00;;;18.90;99.90;;;;;;5114313;28;20443;-84
2023/08/14 05:40:59;;;;;;;1.60;1.23;;;19.00;99.90;;;;;;5114671;28;20798;-84
2023/08/14 05:43:26;;;;;;;1.37;1.10;;;18.90;99.90;;;;;;5114318;28;20447;-84
2023/08/14 05:45:53;;;;;;;1.00;0.83;;;18.90;99.90;;;;;;5114468;28;20466;-84
2023/08/14 05:48:21;;;;;;;0.80;0.80;;;18.90;99.90;;;;;;5114539;28;20445;-85
2023/08/14 05:50:51;;;;;;;1.10;1.00;;;18.90;99.90;;;;;;5114209;28;20990;-84
2023/08/14 05:53:18;;;;;;;1.80;0.87;;;18.90;99.90;;;;;;5114521;28;20476;-86
2023/08/14 05:55:46;;;;;;;1.60;1.00;;;18.80;99.90;;;;;;5114533;28;20463;-86
2023/08/14 05:58:13;;;;;;;1.40;1.30;;;18.70;99.90;;;;;;5114202;28;20443;-85
2023/08/14 06:00:40;;;;;;;0.83;0.77;;;18.70;99.90;;;;;;5113948;28;20483;-85
2023/08/14 06:03:08;;;;;;;0.87;0.80;;;18.70;99.90;;;;;;5113910;28;20483;-85
2023/08/14 06:05:35;;;;;;;0.83;0.83;;;18.80;99.90;;;;;;5114160;28;20463;-84
2023/08/14 06:08:03;;;;;;;1.10;1.00;;;18.70;99.90;;;;;;5114228;28;20451;-85
2023/08/14 06:10:30;;;;;;;1.70;1.27;;;18.70;99.90;;;;;;5114230;28;20486;-85
2023/08/14 06:12:58;;;;;;;1.03;0.93;;;18.60;99.90;;;;;;5114209;28;20439;-85
2023/08/14 06:15:25;;;;;;;0.90;0.80;;;18.70;99.90;;;;;;5114126;28;20486;-85
2023/08/14 06:17:53;;;;;;;3.17;1.00;;;18.70;99.90;;;;;;5114141;28;20500;-86
2023/08/14 06:20:19;;;;;;;1.23;1.13;;;18.80;99.90;;;;;;5114122;28;20482;-86
2023/08/14 06:22:47;;;;;;;0.93;0.90;;;18.80;99.90;;;;;;5114305;28;20469;-87
2023/08/14 06:25:14;;;;;;;1.40;1.30;;;18.80;99.90;;;;;;5114319;28;20473;-87
2023/08/14 06:27:41;;;;;;;1.90;1.10;;;18.80;99.90;;;;;;5114434;28;20442;-87
2023/08/14 06:30:11;;;;;;;1.37;1.10;;;18.80;99.90;;;;;;5114233;28;20438;-87
2023/08/14 06:32:39;;;;;;;2.20;1.77;;;18.80;99.90;;;;;;5114032;28;20438;-87
2023/08/14 06:35:07;;;;;;;1.20;1.10;;;18.90;99.90;;;;;;5114104;28;20459;-86
2023/08/14 06:37:34;;;;;;;1.40;0.83;;;19.00;99.90;;;;;;5113936;27;20492;-87
2023/08/14 06:40:01;;;;;;;2.70;1.03;;;19.20;99.90;;;;;;5114093;28;20479;-87
2023/08/14 06:42:27;;;;;;;3.33;1.10;;;19.40;99.90;;;;;;5113862;28;20439;-87
2023/08/14 06:44:54;;;;;;;1.23;1.13;;;19.50;99.90;;;;;;5114190;28;20467;-87
2023/08/14 06:47:22;;;;;;;2.30;1.23;;;19.60;99.90;;;;;;5118394;28;20434;-88
2023/08/14 06:49:49;;;;;;;1.43;1.10;;;19.60;99.90;;;;;;5126821;28;20991;-88
2023/08/14 06:52:16;;;;;;;2.53;1.20;;;19.80;99.90;;;;;;5118550;28;20438;-89
2023/08/14 06:54:43;;;;;;;1.13;1.03;;;19.90;99.90;;;;;;5118855;28;20836;-88
2023/08/14 06:57:09;;;;;;;4.10;1.17;;;20.10;99.90;;;;;;5118503;28;20782;-88
2023/08/14 06:59:36;;;;;;;1.67;1.40;;;20.20;99.90;;;;;;5118776;28;20455;-89
2023/08/14 07:02:03;;;;;;;3.20;1.53;;;20.30;99.90;;;;;;5118515;28;20423;-89
2023/08/14 07:04:31;;;;;;;1.27;1.17;;;20.50;99.90;;;;;;5078109;28;20459;-90
2023/08/14 07:06:58;;;;;;;1.50;1.40;;;20.50;99.90;;;;;;5078442;28;20444;-89
2023/08/14 07:09:24;;;;;;;1.20;1.10;;;20.60;99.90;;;;;;5078814;28;20803;-90
2023/08/14 07:11:51;;;;;;;2.93;1.23;;;20.70;99.90;;;;;;5078237;28;20956;-90
2023/08/14 07:14:18;;;;;;;1.60;1.50;;;20.80;99.90;;;;;;5078007;28;20995;-90
2023/08/14 07:16:45;;;;;;;1.80;1.63;;;21.00;99.90;;;;;;5078038;28;20971;-89
2023/08/14 07:19:12;;;;;;;1.10;1.00;;;21.30;99.90;;;;;;5078504;28;20484;-90
2023/08/14 07:21:40;;;;;;;1.57;1.47;;;21.30;99.90;;;;;;5077853;28;20955;-90
2023/08/14 07:24:07;;;;;;;1.93;1.77;;;21.40;99.90;;;;;;5078049;28;20448;-91
2023/08/14 07:26:33;;;;;;;2.00;1.90;;;21.40;99.90;;;;;;5078081;28;20813;-88
2023/08/14 07:29:00;;;;;;;1.80;1.70;;;21.60;99.90;;;;;;5078239;28;20452;-90
2023/08/14 07:31:27;;;;;;;1.67;1.30;;;21.70;99.90;;;;;;5077865;28;20437;-89
2023/08/14 07:33:54;;;;;;;1.43;1.30;;;21.80;99.90;;;;;;5078062;28;20824;-89
2023/08/14 07:36:21;;;;;;;3.67;1.50;;;21.90;99.90;;;;;;5077648;28;20503;-88
2023/08/14 07:38:49;;;;;;;1.60;1.30;;;21.90;99.90;;;;;;5077607;28;20824;-89
2023/08/14 07:41:15;;;;;;;1.97;1.60;;;21.90;99.90;;;;;;5077218;28;20482;-89
2023/08/14 07:43:42;;;;;;;1.57;1.37;;;22.00;99.90;;;;;;5077712;28;20200;-90
2023/08/14 07:46:09;;;;;;;1.93;1.67;;;22.20;99.90;;;;;;5076765;28;20451;-88
2023/08/14 07:48:36;;;;;;;1.50;1.30;;;22.20;99.90;;;;;;5077151;28;20478;-89
2023/08/14 07:51:03;;;;;;;2.27;1.87;;;22.40;99.90;;;;;;5077185;28;20590;-88
2023/08/14 07:53:30;;;;;;;2.40;1.20;;;22.40;99.90;;;;;;5076891;28;20301;-88
2023/08/14 07:55:58;;;;;;;2.30;1.90;;;22.50;99.90;;;;;;5076732;28;20233;-88
2023/08/14 07:58:25;;;;;;;2.67;1.57;;;22.60;99.90;;;;;;5076988;28;20542;-89
2023/08/14 08:00:52;;;;;;;1.27;1.17;;;22.70;99.90;;;;;;5076534;28;20260;-88
2023/08/14 08:03:19;;;;;;;2.37;1.40;;;22.90;99.90;;;;;;5097193;28;20233;-87
2023/08/14 08:05:46;;;;;;;0.90;0.90;;;23.00;99.90;;;;;;5116888;28;20233;-87
2023/08/14 08:08:13;;;;;;;1.03;1.03;;;23.20;99.90;;;;;;5117124;28;20296;-86
2023/08/14 08:10:40;;;;;;;1.30;1.20;;;23.30;99.90;;;;;;5116507;27;20197;-87
2023/08/14 08:13:09;;;;;;;1.45;1.35;;;23.40;99.90;;;;;;5116468;28;20669;-87
2023/08/14 08:15:36;;;;;;;1.35;1.25;;;23.50;99.90;;;;;;5116470;28;20221;-87
2023/08/14 08:18:03;;;;;;;1.23;1.13;;;23.70;99.90;;;;;;5116360;28;20661;-88
2023/08/14 08:20:30;;;;;;;1.30;1.20;;;23.90;99.90;;;;;;5116426;28;20220;-86
2023/08/14 08:22:57;;;;;;;1.80;1.45;;;24.00;99.90;;;;;;5116309;28;20208;-86
2023/08/14 08:25:23;;;;;;;1.50;1.40;;;24.20;99.90;;;;;;5116375;28;20235;-85
2023/08/14 08:27:50;;;;;;;1.20;1.08;;;24.40;99.90;;;;;;5116318;28;20208;-86
2023/08/14 08:30:18;;;;;;;1.50;1.40;;;24.60;99.90;;;;;;5116067;28;20200;-86
2023/08/14 08:32:45;;;;;;;1.52;0.90;;;24.50;99.90;;;;;;5116097;28;20200;-85
2023/08/14 08:35:12;;;;;;;1.85;1.42;;;24.60;99.90;;;;;;5115735;27;20732;-86
2023/08/14 08:37:39;;;;;;;1.52;1.40;;;24.80;99.90;;;;;;5115830;28;20215;-86
2023/08/14 08:40:07;;;;;;;2.35;1.52;;;24.90;99.90;;;;;;5115666;28;20201;-86
2023/08/14 08:42:34;;;;;;;1.30;1.20;;;25.00;99.90;;;;;;5115855;28;20205;-85
2023/08/14 08:45:05;;;;;;;1.60;1.50;;;25.10;99.90;;;;;;5115394;27;20231;-87
2023/08/14 08:47:38;;;;;;;0.90;0.90;;;25.10;99.90;;;;;;5115872;28;20184;-86
2023/08/14 08:50:06;;;;;;;1.60;1.30;;;25.20;99.90;;;;;;5115736;28;20182;-86
2023/08/14 08:52:35;;;;;;;1.98;1.35;;;25.40;99.90;;;;;;5115339;28;20205;-86
2023/08/14 08:55:03;;;;;;;1.35;1.25;;;25.60;99.90;;;;;;5115572;28;20252;-86
2023/08/14 08:57:30;;;;;;;2.13;1.20;;;25.70;99.90;;;;;;5115616;28;20253;-86
2023/08/14 09:00:00;;;;;;;1.13;1.02;;;25.80;99.90;;;;;;5115159;28;20700;-85
2023/08/14 09:02:28;;;;;;;3.25;1.45;;;25.90;99.90;;;;;;5115155;27;20628;-85
2023/08/14 09:04:56;;;;;;;2.67;1.58;;;25.90;99.90;;;;;;5115051;28;20712;-85
2023/08/14 09:07:23;;;;;;;1.27;1.17;;;26.20;99.90;;;;;;5115515;28;20205;-86
2023/08/14 09:09:50;;;;;;;1.70;1.35;;;26.30;99.90;;;;;;5114876;28;20203;-85
2023/08/14 09:12:17;;;;;;;1.73;1.52;;;26.50;99.90;;;;;;5115020;28;20205;-86
2023/08/14 09:14:44;;;;;;;1.15;1.05;;;26.70;99.90;;;;;;5114923;28;20224;-85
2023/08/14 09:17:11;;;;;;;1.83;1.30;;;26.90;99.90;;;;;;5114874;28;20197;-85
2023/08/14 09:19:39;;;;;;;1.38;1.27;;;26.90;99.90;;;;;;5115039;28;20613;-85
2023/08/14 09:22:08;;;;;;;1.60;1.50;;;27.10;99.90;;;;;;5115042;28;20201;-86
2023/08/14 09:24:36;;;;;;;1.20;1.10;;;27.00;99.90;;;;;;5115024;28;20227;-86
2023/08/14 09:27:03;;;;;;;1.95;1.67;;;27.10;99.90;;;;;;5114986;28;20204;-85
2023/08/14 09:29:32;;;;;;;1.90;1.55;;;27.10;99.90;;;;;;5114967;28;20581;-85
2023/08/14 09:32:00;;;;;;;1.40;1.30;;;27.10;99.90;;;;;;5114763;28;20669;-87
2023/08/14 09:34:27;;;;;;;2.08;1.10;;;27.20;99.90;;;;;;5116177;28;20220;-83
2023/08/14 09:36:54;;;;;;;1.98;1.20;;;27.30;99.90;;;;;;5114815;28;20212;-86
2023/08/14 09:39:23;;;;;;;2.08;1.58;;;27.40;99.90;;;;;;5114394;28;20216;-86
2023/08/14 09:41:50;;;;;;;1.33;1.23;;;27.50;99.90;;;;;;5114701;28;20316;-85
2023/08/14 09:44:20;;;;;;;1.60;1.50;;;27.50;99.90;;;;;;5114306;28;20216;-85
2023/08/14 09:46:49;;;;;;;1.90;1.70;;;27.70;99.90;;;;;;5114618;28;20196;-86
2023/08/14 09:49:17;;;;;;;2.78;1.50;;;27.80;99.90;;;;;;5114547;28;20253;-85
2023/08/14 09:51:54;;;;;;;1.70;1.60;;;27.80;99.90;;;;;;5114191;28;20208;-86
2023/08/14 09:54:31;;;;;;;1.65;1.55;;;27.90;99.90;;;;;;5114492;27;20637;-86
2023/08/14 09:57:00;;;;;;;1.27;1.17;;;28.10;99.90;;;;;;5114455;28;20207;-86
2023/08/14 09:59:27;;;;;;;1.50;1.40;;;28.40;99.90;;;;;;5114341;28;20205;-86
2023/08/14 10:01:54;;;;;;;1.75;1.65;;;28.50;99.90;;;;;;5114291;28;20216;-87
2023/08/14 10:04:23;;;;;;;2.83;1.73;;;28.60;99.90;;;;;;5113802;28;20702;-86
2023/08/14 10:06:51;;;;;;;1.98;1.70;;;28.60;99.90;;;;;;5114379;28;20282;-85
2023/08/14 10:09:22;;;;;;;1.60;1.50;;;28.50;99.90;;;;;;5113939;28;20777;-86
2023/08/14 10:11:52;;;;;;;1.88;1.67;;;28.50;99.90;;;;;;5114571;28;20193;-87
2023/08/14 10:14:23;;;;;;;2.22;2.13;;;28.50;99.90;;;;;;5114052;28;20236;-86
2023/08/14 10:16:53;;;;;;;1.77;1.67;;;28.50;99.90;;;;;;5113899;28;20182;-85
2023/08/14 10:19:24;;;;;;;1.80;1.70;;;28.40;99.90;;;;;;5113863;28;20282;-85
2023/08/14 10:21:53;;;;;;;1.83;1.73;;;28.40;99.90;;;;;;5113317;28;20210;-85
2023/08/14 10:24:21;;;;;;;2.00;1.90;;;28.50;99.90;;;;;;5113597;28;20718;-86
2023/08/14 10:26:50;;;;;;;2.00;1.83;;;28.30;99.90;;;;;;5113663;28;20204;-86
2023/08/14 10:29:17;;;;;;;2.40;1.98;;;28.30;99.90;;;;;;5113582;28;20282;-86
2023/08/14 10:31:46;;;;;;;2.13;1.92;;;28.30;99.90;;;;;;5113592;28;20197;-85
2023/08/14 10:34:14;;;;;;;4.45;1.75;;;28.30;99.90;;;;;;5113804;28;20270;-85
2023/08/14 10:36:41;;;;;;;1.85;1.75;;;28.40;99.90;;;;;;5113489;28;20768;-85
2023/08/14 10:39:10;;;;;;;2.08;1.98;;;28.40;99.90;;;;;;5113516;28;20199;-86
2023/08/14 10:41:37;;;;;;;1.85;1.73;;;28.40;99.90;;;;;;5113774;28;20213;-85
2023/08/14 10:44:09;;;;;;;3.35;2.17;;;28.40;99.90;;;;;;5113753;28;20224;-86
2023/08/14 10:46:38;;;;;;;1.83;1.73;;;28.20;99.90;;;;;;5114590;28;20232;-85
2023/08/14 10:49:05;;;;;;;2.35;2.25;;;28.10;99.90;;;;;;5113718;28;20233;-85
2023/08/14 10:51:32;;;;;;;2.17;2.08;;;28.00;99.90;;;;;;5113385;28;20201;-85
2023/08/14 10:54:16;;;;;;;1.80;1.70;;;28.10;99.90;;;;;;5113324;28;20585;-85
2023/08/14 10:56:45;;;;;;;1.70;1.60;;;28.20;99.90;;;;;;5113705;28;20196;-85
2023/08/14 10:59:26;;;;;;;2.55;2.25;;;28.30;99.90;;;;;;5113628;28;20202;-85
2023/08/14 11:02:05;;;;;;;4.35;1.85;;;28.60;99.90;;;;;;5113569;28;20241;-85
2023/08/14 11:04:31;;;;;;;2.78;1.83;;;28.70;99.90;;;;;;5113600;28;20229;-85
2023/08/14 11:07:08;;;;;;;2.47;2.28;;;28.90;99.90;;;;;;5113270;28;20548;-85
2023/08/14 11:09:36;;;;;;;3.70;2.25;;;28.90;99.90;;;;;;5113567;28;20194;-85
2023/08/14 11:12:05;;;;;;;1.40;1.30;;;28.70;99.90;;;;;;5113253;28;20662;-85
2023/08/14 11:14:35;;;;;;;2.10;1.80;;;28.50;99.90;;;;;;5121024;28;20228;-86
2023/08/14 11:17:03;;;;;;;2.35;2.15;;;28.50;99.90;;;;;;5113581;28;20243;-86
2023/08/14 11:19:30;;;;;;;1.52;1.42;;;28.40;99.90;;;;;;5113181;28;20637;-85
2023/08/14 11:21:56;;;;;;;2.70;1.75;;;28.50;99.90;;;;;;5113330;28;20225;-85
2023/08/14 11:24:23;;;;;;;2.00;1.90;;;28.60;99.90;;;;;;5113216;28;20214;-85
2023/08/14 11:26:50;;;;;;;1.50;1.40;;;28.60;99.90;;;;;;5113393;28;20198;-85
2023/08/14 11:29:17;;;;;;;2.40;2.20;;;28.70;99.90;;;;;;5113064;28;20716;-85
2023/08/14 11:31:48;;;;;;;2.67;1.92;;;28.90;99.90;;;;;;5114692;28;20203;-86
2023/08/14 11:34:15;;;;;;;4.25;2.08;;;29.00;99.90;;;;;;5116847;28;20726;-85
2023/08/14 11:36:42;;;;;;;1.63;1.52;;;29.00;99.90;;;;;;5117125;28;20199;-85
2023/08/14 11:39:11;;;;;;;1.75;1.65;;;29.00;99.90;;;;;;5116794;28;20229;-86
2023/08/14 11:41:38;;;;;;;3.13;1.80;;;28.90;99.90;;;;;;5117106;28;20223;-85
2023/08/14 11:44:04;;;;;;;1.70;1.60;;;28.80;99.90;;;;;;5116962;28;20659;-86
2023/08/14 11:46:31;;;;;;;4.53;2.20;;;28.80;99.90;;;;;;5116971;28;20202;-86
2023/08/14 11:49:00;;;;;;;1.85;1.63;;;28.70;99.90;;;;;;5116946;28;20202;-86
2023/08/14 11:51:29;;;;;;;1.23;1.23;;;28.70;99.90;;;;;;5116516;28;20691;-86
2023/08/14 11:53:56;;;;;;;1.75;1.45;;;28.60;99.90;;;;;;5116766;28;20202;-86
2023/08/14 11:56:22;;;;;;;1.92;1.63;;;28.50;99.90;;;;;;5116868;28;20210;-88
2023/08/14 11:58:49;;;;;;;1.40;1.30;;;28.40;99.90;;;;;;5116799;28;20570;-88
2023/08/14 12:01:16;;;;;;;1.25;1.25;;;28.30;99.90;;;;;;5116781;28;20217;-87
2023/08/14 12:03:43;;;;;;;1.75;1.65;;;28.20;99.90;;;;;;5116321;28;20816;-87
2023/08/14 12:06:12;;;;;;;1.70;1.60;;;28.10;99.90;;;;;;5116226;28;20200;-87
2023/08/14 12:08:39;;;;;;;1.50;1.40;;;28.00;99.90;;;;;;5116615;28;20564;-87
2023/08/14 12:11:06;;;;;;;1.55;1.45;;;27.90;99.90;;;;;;5116311;27;20204;-87
2023/08/14 12:13:33;;;;;;;1.80;1.70;;;27.80;99.90;;;;;;5116510;28;20210;-87
2023/08/14 12:16:08;;;;;;;1.60;1.50;;;27.70;99.90;;;;;;5116224;28;20227;-87
2023/08/14 12:18:35;;;;;;;3.15;2.00;;;27.60;99.90;;;;;;5116479;28;20188;-87
2023/08/14 12:21:02;;;;;;;2.00;1.90;;;27.50;99.90;;;;;;5116263;28;20232;-86
2023/08/14 12:23:30;;;;;;;1.38;1.27;;;27.40;99.90;;;;;;5116752;28;20206;-87
2023/08/14 12:25:57;;;;;;;2.38;1.80;;;27.30;99.90;;;;;;5116497;28;20228;-87
2023/08/14 12:28:24;;;;;;;2.03;1.67;;;27.30;99.90;;;;;;5116274;28;20207;-88
2023/08/14 12:30:51;;;;;;;1.67;1.58;;;27.20;99.90;;;;;;5116119;28;20200;-87
2023/08/14 12:33:18;;;;;;;1.75;1.65;;;27.20;99.90;;;;;;5116297;27;20201;-87
2023/08/14 12:35:44;;;;;;;1.75;1.65;;;27.20;99.90;;;;;;5115945;28;20220;-87
2023/08/14 12:38:11;;;;;;;1.65;1.55;;;27.10;99.90;;;;;;5115862;28;20204;-87
2023/08/14 12:40:39;;;;;;;1.58;1.48;;;26.90;99.90;;;;;;5116126;28;20185;-87
2023/08/14 12:43:06;;;;;;;1.55;1.20;;;26.90;99.90;;;;;;5115229;28;20205;-87
2023/08/14 12:45:33;;;;;;;1.65;1.55;;;26.80;99.90;;;;;;5115815;28;20225;-87
2023/08/14 12:48:00;;;;;;;1.75;1.65;;;26.70;99.90;;;;;;5115962;28;20204;-87
2023/08/14 12:50:27;;;;;;;1.83;1.65;;;26.60;99.90;;;;;;5115678;28;20215;-87